Time;durP1;ratioP1;P1;durP2;ratioP2;P2;SDS_P1;SDS_P2;PMS_P1;PMS_P2;Temp;Humidity;BMP_temperature;BMP_pressure;BME280_temperature;BME280_humidity;BME280_pressure;Samples;Min_cycle;Max_cycle;Signal;HPM_P1;HPM_P2
2021/06/11 00:00:08;;;;;;;0.00;0.00;;;20.10;67.80;;;;;;5031100;28;20050;-63
2021/06/11 00:02:34;;;;;;;0.00;0.00;;;20.10;68.00;;;;;;5031042;28;20160;-63
2021/06/11 00:05:01;;;;;;;0.00;0.00;;;20.00;67.90;;;;;;5031356;28;20070;-64
2021/06/11 00:07:27;;;;;;;0.00;0.00;;;20.00;67.90;;;;;;5030701;28;20136;-64
2021/06/11 00:09:53;;;;;;;0.00;0.00;;;20.00;68.00;;;;;;5039759;28;20180;-63
2021/06/11 00:12:20;;;;;;;0.00;0.00;;;20.00;68.20;;;;;;5030623;28;20152;-63
2021/06/11 00:14:46;;;;;;;0.10;0.00;;;19.90;68.30;;;;;;5031046;28;20049;-63
2021/06/11 00:17:12;;;;;;;0.00;0.00;;;20.00;68.40;;;;;;5029426;28;20136;-63
2021/06/11 00:19:40;;;;;;;0.00;0.00;;;19.90;68.50;;;;;;5030444;28;20573;-64
2021/06/11 00:22:06;;;;;;;0.00;0.00;;;20.00;68.60;;;;;;5030905;28;20144;-63
2021/06/11 00:24:33;;;;;;;0.00;0.00;;;19.90;68.70;;;;;;5030904;28;20110;-63
2021/06/11 00:26:59;;;;;;;0.00;0.00;;;19.90;68.80;;;;;;5029447;28;20057;-63
2021/06/11 00:29:25;;;;;;;0.00;0.00;;;19.90;68.90;;;;;;5030608;28;20045;-64
2021/06/11 00:31:52;;;;;;;0.00;0.00;;;19.90;68.90;;;;;;5030717;28;20619;-64
2021/06/11 00:34:18;;;;;;;0.00;0.00;;;19.90;69.00;;;;;;5030083;28;20132;-63
2021/06/11 00:36:44;;;;;;;0.00;0.00;;;19.90;69.10;;;;;;5030633;28;20053;-63
2021/06/11 00:39:11;;;;;;;0.00;0.00;;;19.90;69.00;;;;;;5031022;28;20122;-63
2021/06/11 00:41:37;;;;;;;0.00;0.00;;;19.90;68.90;;;;;;5030299;28;20530;-63
2021/06/11 00:44:04;;;;;;;0.00;0.00;;;19.90;69.10;;;;;;5030457;28;20057;-63
2021/06/11 00:46:30;;;;;;;0.00;0.00;;;19.90;69.10;;;;;;5030048;28;20041;-63
2021/06/11 00:48:56;;;;;;;0.00;0.00;;;19.90;69.10;;;;;;5030463;28;20128;-63
2021/06/11 00:51:23;;;;;;;0.00;0.00;;;19.80;69.10;;;;;;5030017;28;20053;-63
2021/06/11 00:53:50;;;;;;;0.00;0.00;;;19.80;69.30;;;;;;5034626;28;20049;-63
2021/06/11 00:56:16;;;;;;;0.00;0.00;;;19.70;69.30;;;;;;5034200;28;20057;-64
2021/06/11 00:58:43;;;;;;;0.00;0.00;;;19.80;69.60;;;;;;5027343;28;20057;-63
2021/06/11 01:01:10;;;;;;;0.00;0.00;;;19.70;69.50;;;;;;5030054;28;20085;-63
2021/06/11 01:03:36;;;;;;;0.00;0.00;;;19.70;69.50;;;;;;5029859;28;20045;-63
2021/06/11 01:06:03;;;;;;;0.00;0.00;;;19.70;69.50;;;;;;5030014;28;20053;-63
2021/06/11 01:08:31;;;;;;;0.15;0.03;;;19.70;69.60;;;;;;5028980;28;20053;-64
2021/06/11 01:10:59;;;;;;;0.00;0.00;;;19.70;69.60;;;;;;5029927;28;20053;-63
2021/06/11 01:13:26;;;;;;;0.00;0.00;;;19.70;69.70;;;;;;5029323;28;20053;-63
2021/06/11 01:15:53;;;;;;;0.00;0.00;;;19.70;69.70;;;;;;5029814;28;20085;-64
2021/06/11 01:18:20;;;;;;;0.00;0.00;;;19.60;69.60;;;;;;5029542;28;20056;-63
2021/06/11 01:20:48;;;;;;;0.00;0.00;;;19.60;69.70;;;;;;5029629;28;20526;-63
2021/06/11 01:23:32;;;;;;;0.00;0.00;;;19.60;69.80;;;;;;5029367;28;20049;-63
2021/06/11 01:26:24;;;;;;;0.00;0.00;;;19.60;69.90;;;;;;5029291;28;20056;-63
2021/06/11 01:28:53;;;;;;;0.00;0.00;;;19.60;70.10;;;;;;5029313;28;20535;-64
2021/06/11 01:31:20;;;;;;;0.00;0.00;;;19.50;70.00;;;;;;5029456;28;20061;-64
2021/06/11 01:33:55;;;;;;;0.00;0.00;;;19.50;70.10;;;;;;5029730;28;20049;-63
2021/06/11 01:36:26;;;;;;;0.00;0.00;;;19.50;70.40;;;;;;5016020;28;20231;-64
2021/06/11 01:38:55;;;;;;;0.00;0.00;;;19.50;70.30;;;;;;5029568;28;20053;-64
2021/06/11 01:41:23;;;;;;;0.10;0.00;;;19.50;70.30;;;;;;5029082;28;20053;-63
2021/06/11 01:43:53;;;;;;;0.00;0.00;;;19.50;70.40;;;;;;5029181;28;20591;-63
2021/06/11 01:46:22;;;;;;;0.00;0.00;;;19.40;70.30;;;;;;5028974;28;20102;-64
2021/06/11 01:48:49;;;;;;;0.00;0.00;;;19.40;70.40;;;;;;5033672;28;20127;-64
2021/06/11 01:51:18;;;;;;;0.00;0.00;;;19.40;70.60;;;;;;5036886;28;20045;-64
2021/06/11 01:53:45;;;;;;;0.00;0.00;;;19.40;70.50;;;;;;5032807;28;20049;-64
2021/06/11 01:56:15;;;;;;;0.00;0.00;;;19.40;70.70;;;;;;5033238;28;20135;-64
2021/06/11 01:58:42;;;;;;;0.00;0.00;;;19.30;71.00;;;;;;5028654;28;20114;-63
2021/06/11 02:01:11;;;;;;;0.00;0.00;;;19.30;71.00;;;;;;5028610;28;20122;-63
2021/06/11 02:03:39;;;;;;;0.00;0.00;;;19.30;71.20;;;;;;5028942;28;20053;-64
2021/06/11 02:06:08;;;;;;;0.00;0.00;;;19.20;71.50;;;;;;5030346;28;20188;-63
2021/06/11 02:08:35;;;;;;;0.00;0.00;;;19.20;71.60;;;;;;5027945;28;20095;-63
2021/06/11 02:11:02;;;;;;;0.00;0.00;;;19.20;71.50;;;;;;5028361;28;20049;-64
2021/06/11 02:13:29;;;;;;;0.00;0.00;;;19.20;71.40;;;;;;5028287;28;20607;-64
2021/06/11 02:15:57;;;;;;;0.00;0.00;;;19.20;71.30;;;;;;5028849;28;20053;-63
2021/06/11 02:18:24;;;;;;;0.00;0.00;;;19.20;71.30;;;;;;5028812;28;20041;-63
2021/06/11 02:20:52;;;;;;;0.00;0.00;;;19.20;71.60;;;;;;5028674;28;20124;-63
2021/06/11 02:23:20;;;;;;;0.00;0.00;;;19.10;71.40;;;;;;5028719;28;20904;-64
2021/06/11 02:25:48;;;;;;;0.00;0.00;;;19.10;71.50;;;;;;5028438;28;20061;-63
2021/06/11 02:28:16;;;;;;;0.00;0.00;;;19.20;71.40;;;;;;5034420;28;20044;-64
2021/06/11 02:30:44;;;;;;;0.00;0.00;;;19.10;71.30;;;;;;5037183;28;20875;-63
2021/06/11 02:33:13;;;;;;;0.00;0.00;;;19.10;71.30;;;;;;5028594;28;20104;-64
2021/06/11 02:35:40;;;;;;;0.03;0.00;;;19.20;71.50;;;;;;5028290;28;20138;-63
2021/06/11 02:38:07;;;;;;;0.00;0.00;;;19.20;71.40;;;;;;5028810;28;20069;-64
2021/06/11 02:40:33;;;;;;;0.00;0.00;;;19.20;71.40;;;;;;5038145;28;20136;-63
2021/06/11 02:43:09;;;;;;;0.10;0.00;;;19.20;71.30;;;;;;5028977;28;20095;-63
2021/06/11 02:45:44;;;;;;;0.00;0.00;;;19.20;71.40;;;;;;5028139;28;20132;-63
2021/06/11 02:48:31;;;;;;;0.00;0.00;;;19.20;71.30;;;;;;5027957;28;20188;-64
2021/06/11 02:51:22;;;;;;;0.08;0.00;;;19.20;71.30;;;;;;5028186;28;20437;-64
2021/06/11 02:53:49;;;;;;;0.20;0.00;;;19.10;71.20;;;;;;5032516;28;20102;-64
2021/06/11 02:56:42;;;;;;;0.00;0.00;;;19.20;71.20;;;;;;5031581;28;20057;-63
2021/06/11 02:59:15;;;;;;;0.00;0.00;;;19.20;71.20;;;;;;5027172;28;20056;-64
2021/06/11 03:01:47;;;;;;;0.00;0.00;;;19.20;71.10;;;;;;5030923;28;20056;-63
2021/06/11 03:04:15;;;;;;;0.00;0.00;;;19.20;71.10;;;;;;5036164;28;20049;-63
2021/06/11 03:06:44;;;;;;;0.00;0.00;;;19.20;71.10;;;;;;5028284;28;20045;-63
2021/06/11 03:09:15;;;;;;;0.00;0.00;;;19.20;71.20;;;;;;5027559;28;20466;-63
2021/06/11 03:11:42;;;;;;;0.00;0.00;;;19.20;71.10;;;;;;5036936;28;20129;-63
2021/06/11 03:14:10;;;;;;;0.00;0.00;;;19.20;71.20;;;;;;5028431;28;20140;-63
2021/06/11 03:16:39;;;;;;;0.00;0.00;;;19.20;71.30;;;;;;5027817;28;20140;-63
2021/06/11 03:19:10;;;;;;;0.00;0.00;;;19.20;72.20;;;;;;5028743;28;20536;-64
2021/06/11 03:21:47;;;;;;;0.00;0.00;;;19.20;71.50;;;;;;5036016;28;20133;-63
2021/06/11 03:24:30;;;;;;;0.00;0.00;;;19.10;71.60;;;;;;5032136;28;20127;-64
2021/06/11 03:27:23;;;;;;;0.00;0.00;;;19.10;71.50;;;;;;5031843;28;20052;-64
2021/06/11 03:29:54;;;;;;;0.10;0.10;;;19.10;71.50;;;;;;4959023;28;20055;-64
2021/06/11 03:32:27;;;;;;;0.00;0.00;;;19.10;71.40;;;;;;4969833;28;20133;-64
2021/06/11 03:34:58;;;;;;;0.00;0.00;;;19.10;71.40;;;;;;4970266;28;20145;-63
2021/06/11 03:37:26;;;;;;;0.00;0.00;;;19.10;71.30;;;;;;4970054;28;20139;-63
2021/06/11 03:40:01;;;;;;;0.00;0.00;;;19.10;71.40;;;;;;4970070;28;20090;-64
2021/06/11 03:42:29;;;;;;;0.00;0.00;;;19.10;71.50;;;;;;4969849;28;20105;-64
2021/06/11 03:44:59;;;;;;;0.00;0.00;;;19.10;71.30;;;;;;4970050;28;20103;-64
2021/06/11 03:47:30;;;;;;;0.00;0.00;;;19.10;71.80;;;;;;4968983;28;20058;-63
2021/06/11 03:49:58;;;;;;;0.00;0.00;;;19.00;71.50;;;;;;4943343;28;20130;-63
2021/06/11 03:52:28;;;;;;;0.00;0.00;;;19.00;71.50;;;;;;4965417;28;20097;-63
2021/06/11 03:55:09;;;;;;;0.10;0.00;;;19.00;71.60;;;;;;4969784;28;20141;-63
2021/06/11 03:57:38;;;;;;;0.00;0.00;;;19.00;71.80;;;;;;4961941;28;20070;-64
2021/06/11 04:00:05;;;;;;;0.00;0.00;;;19.00;71.80;;;;;;4969485;28;20086;-64
2021/06/11 04:02:31;;;;;;;0.00;0.00;;;19.00;71.90;;;;;;4968722;28;20093;-63
2021/06/11 04:04:58;;;;;;;0.00;0.00;;;18.90;72.00;;;;;;4969022;28;20116;-64
2021/06/11 04:07:36;;;;;;;0.10;0.10;;;18.90;72.00;;;;;;5012003;28;20088;-64
2021/06/11 04:10:08;;;;;;;0.00;0.00;;;18.90;72.00;;;;;;5029961;28;20099;-64
2021/06/11 04:12:43;;;;;;;0.00;0.00;;;18.90;72.10;;;;;;5024535;28;20129;-64
2021/06/11 04:15:12;;;;;;;0.00;0.00;;;18.90;72.20;;;;;;5037606;28;20052;-64
2021/06/11 04:17:41;;;;;;;0.00;0.00;;;18.90;72.20;;;;;;5034281;28;20413;-63
2021/06/11 04:20:14;;;;;;;0.00;0.00;;;18.90;72.30;;;;;;5035468;28;20058;-63
2021/06/11 04:22:44;;;;;;;0.00;0.00;;;18.90;72.50;;;;;;5031761;28;20084;-63
2021/06/11 04:25:13;;;;;;;0.00;0.00;;;18.90;72.50;;;;;;5033182;28;20053;-64
2021/06/11 04:27:42;;;;;;;0.10;0.00;;;18.80;72.40;;;;;;5031210;28;20230;-63
2021/06/11 04:30:10;;;;;;;0.00;0.00;;;18.80;72.60;;;;;;5030166;28;20049;-64
2021/06/11 04:32:37;;;;;;;0.10;0.00;;;18.80;72.70;;;;;;5029701;28;20079;-64
2021/06/11 04:35:04;;;;;;;0.00;0.00;;;18.80;72.60;;;;;;5030626;28;20054;-63
2021/06/11 04:37:31;;;;;;;0.00;0.00;;;18.80;72.50;;;;;;5012426;28;20045;-63
2021/06/11 04:39:58;;;;;;;0.00;0.00;;;18.70;72.60;;;;;;5029877;28;20058;-64
2021/06/11 04:42:24;;;;;;;0.00;0.00;;;18.70;72.60;;;;;;5029694;28;20166;-64
2021/06/11 04:44:51;;;;;;;0.00;0.00;;;18.70;72.60;;;;;;5030117;28;20136;-66
2021/06/11 04:47:17;;;;;;;0.00;0.00;;;18.70;72.70;;;;;;5025098;28;20452;-64
2021/06/11 04:49:44;;;;;;;0.00;0.00;;;18.70;72.80;;;;;;5027554;28;20212;-64
2021/06/11 04:52:10;;;;;;;0.00;0.00;;;18.70;72.80;;;;;;5021457;28;20050;-64
2021/06/11 04:54:36;;;;;;;0.00;0.00;;;18.70;72.70;;;;;;5017205;28;20137;-64
2021/06/11 04:57:03;;;;;;;0.00;0.00;;;18.70;72.70;;;;;;5014502;28;20045;-64
2021/06/11 04:59:30;;;;;;;0.00;0.00;;;18.70;72.70;;;;;;5012879;28;20060;-64
2021/06/11 05:01:56;;;;;;;0.00;0.00;;;18.70;72.60;;;;;;5012097;28;20057;-64
2021/06/11 05:04:23;;;;;;;0.00;0.00;;;18.70;72.50;;;;;;5010166;28;20113;-64
2021/06/11 05:06:51;;;;;;;0.00;0.00;;;18.70;72.50;;;;;;5009541;28;20061;-63
2021/06/11 05:09:17;;;;;;;0.00;0.00;;;18.70;72.40;;;;;;5015768;28;20057;-64
2021/06/11 05:11:43;;;;;;;0.00;0.00;;;18.70;72.40;;;;;;5035025;28;20492;-64
2021/06/11 05:14:10;;;;;;;0.00;0.00;;;18.70;72.30;;;;;;5035333;28;20099;-63
2021/06/11 05:16:36;;;;;;;0.00;0.00;;;18.80;72.20;;;;;;5036093;28;20564;-64
2021/06/11 05:19:03;;;;;;;0.00;0.00;;;18.80;72.20;;;;;;5037521;28;20496;-64
2021/06/11 05:21:29;;;;;;;0.00;0.00;;;18.80;72.00;;;;;;5034359;28;20179;-63
2021/06/11 05:23:56;;;;;;;0.00;0.00;;;18.80;72.00;;;;;;5038831;28;20519;-63
2021/06/11 05:26:23;;;;;;;0.00;0.00;;;18.80;72.00;;;;;;5018362;28;20046;-64
2021/06/11 05:28:49;;;;;;;0.00;0.00;;;18.80;72.00;;;;;;5026376;28;20128;-63
2021/06/11 05:31:16;;;;;;;0.00;0.00;;;18.80;71.80;;;;;;5035314;28;20422;-63
2021/06/11 05:33:42;;;;;;;0.00;0.00;;;18.80;71.80;;;;;;5032017;28;20604;-64
2021/06/11 05:36:09;;;;;;;0.10;0.00;;;18.80;71.80;;;;;;5035697;28;20056;-64
2021/06/11 05:38:35;;;;;;;0.00;0.00;;;18.80;71.80;;;;;;5027814;28;20049;-66
2021/06/11 05:41:03;;;;;;;0.00;0.00;;;18.80;71.70;;;;;;5032839;28;20057;-66
2021/06/11 05:43:30;;;;;;;0.00;0.00;;;18.80;71.60;;;;;;5030615;28;20155;-66
2021/06/11 05:45:57;;;;;;;0.00;0.00;;;18.80;71.50;;;;;;5032071;28;20160;-65
2021/06/11 05:48:23;;;;;;;0.00;0.00;;;18.80;71.50;;;;;;5031633;28;20115;-65
2021/06/11 05:50:50;;;;;;;0.00;0.00;;;18.80;71.30;;;;;;5030802;28;20136;-65
2021/06/11 05:53:22;;;;;;;0.00;0.00;;;18.80;71.40;;;;;;5032725;28;20053;-65
2021/06/11 05:55:51;;;;;;;0.00;0.00;;;18.80;71.40;;;;;;5034700;28;20551;-65
2021/06/11 05:58:18;;;;;;;0.00;0.00;;;18.80;71.50;;;;;;5045009;28;20144;-65
2021/06/11 06:00:45;;;;;;;0.00;0.00;;;18.80;71.50;;;;;;5046493;28;20053;-66
2021/06/11 06:03:11;;;;;;;0.00;0.00;;;18.70;71.50;;;;;;5043621;28;20101;-66
2021/06/11 06:05:38;;;;;;;0.00;0.00;;;18.80;71.50;;;;;;5029247;28;20524;-65
2021/06/11 06:08:04;;;;;;;0.00;0.00;;;18.80;71.40;;;;;;5022415;28;20168;-65
2021/06/11 06:10:31;;;;;;;0.00;0.00;;;18.90;71.30;;;;;;5013034;28;20046;-66
2021/06/11 06:12:57;;;;;;;0.00;0.00;;;18.90;71.30;;;;;;5012281;28;20046;-65
2021/06/11 06:15:24;;;;;;;0.00;0.00;;;18.90;71.10;;;;;;5015500;28;20054;-65
2021/06/11 06:17:50;;;;;;;0.00;0.00;;;18.90;71.00;;;;;;5011089;28;20058;-66
2021/06/11 06:20:17;;;;;;;0.82;0.00;;;18.90;70.90;;;;;;5012085;28;20129;-65
2021/06/11 06:22:43;;;;;;;0.00;0.00;;;18.90;70.80;;;;;;5009624;28;20733;-65
2021/06/11 06:25:11;;;;;;;0.00;0.00;;;18.90;70.80;;;;;;5008995;28;20115;-65
2021/06/11 06:27:40;;;;;;;0.00;0.00;;;18.90;70.90;;;;;;5011251;28;20192;-65
2021/06/11 06:30:08;;;;;;;0.00;0.00;;;19.00;71.00;;;;;;5014285;28;20050;-66
2021/06/11 06:32:35;;;;;;;0.08;0.08;;;19.00;71.00;;;;;;5012007;28;20418;-66
2021/06/11 06:35:02;;;;;;;0.00;0.00;;;19.00;71.00;;;;;;5022658;28;20095;-66
2021/06/11 06:37:29;;;;;;;0.00;0.00;;;19.10;70.80;;;;;;5015361;28;20518;-66
2021/06/11 06:39:56;;;;;;;0.00;0.00;;;19.20;70.70;;;;;;5042809;28;20334;-66
2021/06/11 06:42:22;;;;;;;0.00;0.00;;;19.20;70.40;;;;;;5037938;28;20127;-66
2021/06/11 06:44:49;;;;;;;0.00;0.00;;;19.30;70.10;;;;;;5029969;28;20128;-66
2021/06/11 06:47:15;;;;;;;0.00;0.00;;;19.20;69.90;;;;;;5036438;28;20080;-66
2021/06/11 06:49:42;;;;;;;0.00;0.00;;;19.30;69.80;;;;;;5033104;28;20474;-68
2021/06/11 06:52:08;;;;;;;0.00;0.00;;;19.30;69.80;;;;;;5041231;28;20531;-67
2021/06/11 06:54:34;;;;;;;0.00;0.00;;;19.20;69.80;;;;;;5024067;28;20061;-68
2021/06/11 06:57:02;;;;;;;0.00;0.00;;;19.30;69.80;;;;;;5041043;28;20049;-68
2021/06/11 06:59:28;;;;;;;0.00;0.00;;;19.30;70.00;;;;;;5038509;28;20231;-68
2021/06/11 07:01:59;;;;;;;0.00;0.00;;;19.30;70.00;;;;;;5033669;28;20053;-68
2021/06/11 07:04:30;;;;;;;0.00;0.00;;;19.30;70.00;;;;;;5037874;28;20045;-68
2021/06/11 07:06:57;;;;;;;0.00;0.00;;;19.40;69.90;;;;;;5031942;28;20060;-68
2021/06/11 07:09:24;;;;;;;0.00;0.00;;;19.50;69.80;;;;;;5036049;28;20090;-68
2021/06/11 07:11:52;;;;;;;0.00;0.00;;;19.60;69.70;;;;;;5041706;28;20080;-68
2021/06/11 07:14:19;;;;;;;0.00;0.00;;;19.70;69.60;;;;;;5023531;28;20160;-68
2021/06/11 07:16:48;;;;;;;0.00;0.00;;;19.80;69.30;;;;;;5027014;28;20052;-68
2021/06/11 07:19:14;;;;;;;0.00;0.00;;;19.90;68.70;;;;;;5029895;28;20509;-68
2021/06/11 07:21:41;;;;;;;0.00;0.00;;;20.10;68.30;;;;;;5041149;28;20171;-68
2021/06/11 07:24:07;;;;;;;0.08;0.00;;;20.20;68.00;;;;;;5034688;28;20142;-68
2021/06/11 07:26:34;;;;;;;0.00;0.00;;;20.30;67.70;;;;;;5031884;28;20129;-68
2021/06/11 07:29:00;;;;;;;0.20;0.00;;;20.40;67.60;;;;;;5015331;28;20049;-68
2021/06/11 07:31:27;;;;;;;0.00;0.00;;;20.50;68.20;;;;;;5040409;28;20088;-68
2021/06/11 07:33:54;;;;;;;0.00;0.00;;;20.60;66.80;;;;;;5025414;28;20575;-68
2021/06/11 07:36:20;;;;;;;0.00;0.00;;;20.80;66.70;;;;;;5034366;28;20045;-68
2021/06/11 07:38:46;;;;;;;0.00;0.00;;;20.90;66.40;;;;;;5037231;28;20049;-68
2021/06/11 07:41:13;;;;;;;0.00;0.00;;;21.00;66.00;;;;;;5041517;28;20060;-68
2021/06/11 07:43:39;;;;;;;0.00;0.00;;;21.10;65.60;;;;;;5039004;28;20110;-68
2021/06/11 07:46:05;;;;;;;0.00;0.00;;;21.00;65.40;;;;;;5039331;28;20145;-68
2021/06/11 07:48:32;;;;;;;0.00;0.00;;;21.00;65.30;;;;;;5040944;28;20099;-68
2021/06/11 07:50:58;;;;;;;0.10;0.08;;;21.10;65.30;;;;;;5034532;28;20424;-68
2021/06/11 07:53:24;;;;;;;0.00;0.00;;;21.20;65.30;;;;;;5037360;28;20044;-68
2021/06/11 07:55:51;;;;;;;0.00;0.00;;;21.30;64.70;;;;;;5037242;28;20049;-68
2021/06/11 07:58:18;;;;;;;0.28;0.00;;;21.40;64.80;;;;;;5036690;28;20223;-68
2021/06/11 08:00:44;;;;;;;0.00;0.00;;;21.60;64.50;;;;;;5029551;28;20129;-68
2021/06/11 08:03:11;;;;;;;0.00;0.00;;;21.70;64.60;;;;;;5029734;28;20082;-68
2021/06/11 08:05:39;;;;;;;0.00;0.00;;;21.90;64.40;;;;;;5021999;28;20139;-68
2021/06/11 08:08:07;;;;;;;0.00;0.00;;;22.00;63.90;;;;;;5028623;28;20536;-68
2021/06/11 08:10:33;;;;;;;0.00;0.00;;;22.10;63.50;;;;;;5027488;28;20136;-68
2021/06/11 08:13:00;;;;;;;0.00;0.00;;;22.20;63.30;;;;;;5020563;28;20095;-68
2021/06/11 08:15:26;;;;;;;0.00;0.00;;;22.30;63.10;;;;;;5027996;28;20126;-68
2021/06/11 08:17:52;;;;;;;0.00;0.00;;;22.40;62.50;;;;;;5031634;28;20093;-68
2021/06/11 08:20:19;;;;;;;0.10;0.00;;;22.50;62.50;;;;;;5029902;28;20053;-68
2021/06/11 08:22:46;;;;;;;0.00;0.00;;;22.70;62.30;;;;;;5013056;28;20050;-68
2021/06/11 08:25:12;;;;;;;0.00;0.00;;;22.80;62.00;;;;;;5031795;28;20607;-68
2021/06/11 08:27:41;;;;;;;0.00;0.00;;;22.90;61.60;;;;;;5029819;28;20050;-68
2021/06/11 08:30:11;;;;;;;0.00;0.00;;;23.10;61.50;;;;;;5030993;28;20148;-68
2021/06/11 08:32:38;;;;;;;0.00;0.00;;;23.10;61.20;;;;;;5011822;28;20045;-68
2021/06/11 08:35:05;;;;;;;0.00;0.00;;;23.20;61.10;;;;;;5030137;28;20049;-68
2021/06/11 08:37:32;;;;;;;0.00;0.00;;;23.30;61.10;;;;;;5030359;28;20057;-68
2021/06/11 08:39:58;;;;;;;0.00;0.00;;;23.40;60.80;;;;;;5030615;28;20049;-68
2021/06/11 08:42:30;;;;;;;0.00;0.00;;;23.50;60.40;;;;;;5030338;28;20045;-68
2021/06/11 08:45:03;;;;;;;0.00;0.00;;;23.60;60.20;;;;;;5030435;28;20147;-68
2021/06/11 08:47:30;;;;;;;0.10;0.00;;;23.70;60.20;;;;;;5030500;28;20049;-68
2021/06/11 08:49:57;;;;;;;0.00;0.00;;;23.80;59.80;;;;;;5016592;28;20513;-68
2021/06/11 08:52:24;;;;;;;0.00;0.00;;;23.90;59.40;;;;;;5030045;28;20049;-68
2021/06/11 08:54:51;;;;;;;0.00;0.00;;;24.00;59.00;;;;;;5038493;28;20053;-68
2021/06/11 08:57:19;;;;;;;0.00;0.00;;;24.00;58.60;;;;;;5029233;28;20128;-68
2021/06/11 08:59:47;;;;;;;0.00;0.00;;;24.10;58.50;;;;;;5030282;28;20046;-68
2021/06/11 09:02:15;;;;;;;0.00;0.00;;;24.30;58.30;;;;;;5029777;28;20046;-68
2021/06/11 09:04:46;;;;;;;0.00;0.00;;;24.40;57.90;;;;;;5030239;28;20076;-68
2021/06/11 09:07:43;;;;;;;0.00;0.00;;;24.50;57.90;;;;;;5029819;28;20079;-68
2021/06/11 09:10:10;;;;;;;0.00;0.00;;;24.60;57.40;;;;;;5026226;28;20048;-68
2021/06/11 09:12:41;;;;;;;0.00;0.00;;;24.70;57.30;;;;;;5030000;28;20049;-68
2021/06/11 09:15:08;;;;;;;0.00;0.00;;;24.80;57.00;;;;;;5021927;28;20041;-68
2021/06/11 09:17:48;;;;;;;0.00;0.00;;;24.80;56.50;;;;;;5043183;28;20059;-68
2021/06/11 09:20:19;;;;;;;0.00;0.00;;;25.00;56.30;;;;;;5021173;28;20052;-68
2021/06/11 09:22:54;;;;;;;0.00;0.00;;;25.10;55.80;;;;;;5013677;28;20129;-68
2021/06/11 09:25:50;;;;;;;0.00;0.00;;;25.20;56.00;;;;;;5019325;28;20132;-68
2021/06/11 09:28:24;;;;;;;0.00;0.00;;;25.20;55.40;;;;;;5002193;28;20500;-67
2021/06/11 09:30:56;;;;;;;0.00;0.00;;;25.30;55.30;;;;;;5029724;28;20057;-67
2021/06/11 09:33:24;;;;;;;0.00;0.00;;;25.40;55.30;;;;;;5011253;28;20049;-67
2021/06/11 09:35:59;;;;;;;0.00;0.00;;;25.50;56.00;;;;;;5028920;28;20114;-68
2021/06/11 09:38:26;;;;;;;0.00;0.00;;;25.60;54.80;;;;;;5029242;28;20049;-67
2021/06/11 09:40:59;;;;;;;0.00;0.00;;;25.70;54.50;;;;;;5018070;28;20057;-68
2021/06/11 09:43:26;;;;;;;0.00;0.00;;;25.70;54.50;;;;;;5009634;28;20069;-68
2021/06/11 09:46:10;;;;;;;0.00;0.00;;;25.80;54.40;;;;;;5033499;28;20054;-68
2021/06/11 09:48:41;;;;;;;0.00;0.00;;;25.80;54.40;;;;;;5043582;28;20131;-68
2021/06/11 09:51:19;;;;;;;0.00;0.00;;;25.70;54.30;;;;;;5038908;28;20513;-68
2021/06/11 09:53:46;;;;;;;0.00;0.00;;;25.70;54.30;;;;;;5043014;28;20132;-68
2021/06/11 09:56:21;;;;;;;0.00;0.00;;;25.70;54.30;;;;;;5036981;28;20050;-67
2021/06/11 09:58:48;;;;;;;0.00;0.00;;;25.80;54.20;;;;;;5020198;28;20547;-68
2021/06/11 10:01:15;;;;;;;0.00;0.00;;;25.90;53.90;;;;;;5011030;28;20843;-67
2021/06/11 10:03:45;;;;;;;0.00;0.00;;;25.90;53.80;;;;;;5010712;28;20481;-68
2021/06/11 10:06:13;;;;;;;0.00;0.00;;;26.00;53.60;;;;;;5009333;28;20061;-68
2021/06/11 10:08:42;;;;;;;0.00;0.00;;;26.10;53.30;;;;;;5010539;28;20042;-68
2021/06/11 10:11:11;;;;;;;0.00;0.00;;;26.10;52.80;;;;;;5009721;28;20042;-68
2021/06/11 10:13:40;;;;;;;0.00;0.00;;;26.10;52.90;;;;;;5010452;28;20057;-68
2021/06/11 10:16:08;;;;;;;0.00;0.00;;;26.10;52.60;;;;;;5009859;28;20133;-67
2021/06/11 10:18:56;;;;;;;0.00;0.00;;;26.20;52.60;;;;;;4936146;28;20063;-67
2021/06/11 10:21:28;;;;;;;0.00;0.00;;;26.30;52.30;;;;;;4948887;28;20051;-67
2021/06/11 10:23:55;;;;;;;0.00;0.00;;;26.30;52.40;;;;;;4937007;28;20055;-66
2021/06/11 10:26:21;;;;;;;0.00;0.00;;;26.30;52.10;;;;;;4948366;28;20160;-67
2021/06/11 10:28:49;;;;;;;0.00;0.00;;;26.30;52.10;;;;;;4947141;28;20134;-65
2021/06/11 10:31:19;;;;;;;0.00;0.00;;;26.30;52.10;;;;;;4946892;28;20062;-65
2021/06/11 10:33:46;;;;;;;0.00;0.00;;;26.30;52.50;;;;;;4953477;28;20085;-66
2021/06/11 10:36:27;;;;;;;0.00;0.00;;;26.20;52.40;;;;;;4957730;28;20073;-65
2021/06/11 10:39:01;;;;;;;0.00;0.00;;;26.10;52.70;;;;;;4947137;28;20078;-65
2021/06/11 10:41:53;;;;;;;0.00;0.00;;;26.10;53.00;;;;;;4940141;28;20050;-65
2021/06/11 10:44:43;;;;;;;0.00;0.00;;;26.10;53.10;;;;;;4955104;28;20054;-65
2021/06/11 10:47:15;;;;;;;0.00;0.00;;;26.10;52.80;;;;;;4944579;28;20059;-65
2021/06/11 10:49:57;;;;;;;0.40;0.00;;;26.00;52.70;;;;;;4957433;28;20085;-65
2021/06/11 10:52:38;;;;;;;0.00;0.00;;;26.00;52.90;;;;;;4953572;28;20081;-65
2021/06/11 10:55:13;;;;;;;0.00;0.00;;;26.00;53.30;;;;;;4951354;28;20414;-65
2021/06/11 10:57:52;;;;;;;0.10;0.00;;;25.90;52.70;;;;;;5016001;28;20050;-65
2021/06/11 11:00:27;;;;;;;0.10;0.10;;;25.90;52.30;;;;;;5028820;28;20537;-64
2021/06/11 11:02:57;;;;;;;0.00;0.00;;;25.90;53.10;;;;;;5031693;28;20061;-65
2021/06/11 11:05:34;;;;;;;0.00;0.00;;;25.90;53.00;;;;;;5039246;28;20053;-65
2021/06/11 11:08:05;;;;;;;0.00;0.00;;;25.90;52.70;;;;;;5027533;28;20137;-65
2021/06/11 11:10:54;;;;;;;0.00;0.00;;;25.90;52.30;;;;;;5038868;28;20045;-65
2021/06/11 11:13:34;;;;;;;0.00;0.00;;;25.80;52.30;;;;;;5036283;28;20132;-64
2021/06/11 11:16:00;;;;;;;0.00;0.00;;;25.80;52.80;;;;;;5035554;28;20053;-65
2021/06/11 11:18:29;;;;;;;0.10;0.00;;;25.70;52.80;;;;;;5036601;28;20514;-65
2021/06/11 11:20:56;;;;;;;0.00;0.00;;;25.60;52.60;;;;;;5037326;28;20049;-64
2021/06/11 11:23:25;;;;;;;0.00;0.00;;;25.50;53.10;;;;;;5034090;28;20096;-65
2021/06/11 11:25:52;;;;;;;0.00;0.00;;;25.50;54.00;;;;;;5035624;28;20057;-65
2021/06/11 11:28:20;;;;;;;0.00;0.00;;;25.60;53.50;;;;;;5018833;28;20057;-65
2021/06/11 11:30:48;;;;;;;0.00;0.00;;;25.60;53.50;;;;;;5026307;28;20079;-64
2021/06/11 11:33:16;;;;;;;0.05;0.00;;;25.60;54.00;;;;;;5021947;28;20108;-65
2021/06/11 11:35:46;;;;;;;0.00;0.00;;;25.70;53.80;;;;;;5011321;28;20049;-67
2021/06/11 11:38:13;;;;;;;;;;;25.60;53.30;;;;;;5034084;28;20049;-65
2021/06/11 11:40:42;;;;;;;0.00;0.00;;;25.60;53.10;;;;;;5033689;28;20036;-63
2021/06/11 11:43:09;;;;;;;0.00;0.00;;;25.60;52.90;;;;;;5011562;28;20577;-64
2021/06/11 11:45:37;;;;;;;0.00;0.00;;;25.50;52.20;;;;;;5012272;28;20054;-64
2021/06/11 11:48:06;;;;;;;0.40;0.00;;;25.50;53.00;;;;;;5018847;28;20054;-63
2021/06/11 11:50:35;;;;;;;0.03;0.00;;;25.50;53.80;;;;;;5032597;28;20057;-63
2021/06/11 11:53:01;;;;;;;0.00;0.00;;;25.50;54.50;;;;;;5019630;28;20635;-64
2021/06/11 11:55:28;;;;;;;0.30;0.00;;;25.50;54.80;;;;;;5014737;28;20065;-63
2021/06/11 11:57:55;;;;;;;0.13;0.00;;;25.60;54.50;;;;;;5013835;28;20050;-63
2021/06/11 12:00:22;;;;;;;0.00;0.00;;;25.70;54.10;;;;;;5025004;28;20110;-63
2021/06/11 12:02:49;;;;;;;0.00;0.00;;;25.70;53.70;;;;;;5039509;28;20811;-63
2021/06/11 12:05:16;;;;;;;0.00;0.00;;;25.70;53.40;;;;;;5047714;28;20500;-63
2021/06/11 12:07:43;;;;;;;0.00;0.00;;;25.70;53.50;;;;;;5045836;28;20080;-63
2021/06/11 12:10:10;;;;;;;0.00;0.00;;;25.80;53.30;;;;;;5046304;28;20504;-63
2021/06/11 12:12:36;;;;;;;0.00;0.00;;;25.80;53.50;;;;;;5047186;28;20069;-63
2021/06/11 12:15:04;;;;;;;0.00;0.00;;;25.80;53.60;;;;;;5044060;28;20056;-63
2021/06/11 12:17:30;;;;;;;0.00;0.00;;;25.80;53.80;;;;;;5028459;28;20053;-63
2021/06/11 12:19:57;;;;;;;0.10;0.00;;;25.80;54.10;;;;;;5030043;28;20227;-63
2021/06/11 12:22:23;;;;;;;0.00;0.00;;;25.90;54.10;;;;;;5047064;28;20466;-63
2021/06/11 12:24:49;;;;;;;0.00;0.00;;;25.80;53.80;;;;;;5039368;28;20053;-63
2021/06/11 12:27:16;;;;;;;0.00;0.00;;;25.70;53.50;;;;;;5038267;28;20124;-63
2021/06/11 12:29:42;;;;;;;0.10;0.00;;;25.70;53.90;;;;;;5034941;28;20050;-63
2021/06/11 12:32:10;;;;;;;0.00;0.00;;;25.70;54.30;;;;;;5030579;28;20144;-64
2021/06/11 12:34:36;;;;;;;0.00;0.00;;;25.70;54.40;;;;;;5030283;28;20077;-63
2021/06/11 12:37:03;;;;;;;0.00;0.00;;;25.70;54.20;;;;;;5030500;28;20053;-63
2021/06/11 12:39:30;;;;;;;0.00;0.00;;;25.80;54.20;;;;;;5030499;28;20045;-63
2021/06/11 12:42:00;;;;;;;0.00;0.00;;;25.90;54.20;;;;;;5030483;28;20147;-63
2021/06/11 12:44:26;;;;;;;0.00;0.00;;;26.00;54.00;;;;;;5021267;28;20547;-63
2021/06/11 12:46:55;;;;;;;0.20;0.00;;;26.10;53.30;;;;;;5036284;28;20049;-63
2021/06/11 12:49:24;;;;;;;0.00;0.00;;;26.10;53.20;;;;;;5016965;28;20045;-63
2021/06/11 12:51:52;;;;;;;0.15;0.00;;;26.10;53.30;;;;;;5037657;28;20045;-63
2021/06/11 12:54:19;;;;;;;0.00;0.00;;;26.10;53.50;;;;;;5034547;28;20057;-63
2021/06/11 12:56:45;;;;;;;0.40;0.05;;;26.10;53.30;;;;;;5042847;28;20460;-63